KIFP

Laughlin / Bullhead International Airport

Bullhead City, Arizona, USA
METAR KIFP 212148Z 18009KT 10SM SKC 45/M02 A2973
Observed Flight Rules
Jun-21 @ 21:48 UTC (19 minutes ago) Visual Flight Rules
Wind Visibility Clouds
180° at 9 knots 10 miles
  • Clear skies
Temperatures Readings
Current 45°C / 113°F
Dewpoint -2°C / 28°F
Humidity 5%
Altimeter 29.73" Hg
Pressure 1007 hPa
Elevation 212
METAR KIFP 212148Z 18009KT 10SM SKC 45/M02 A2973
Observed Flight Rules
Jun-21 @ 21:48 UTC
(19 minutes ago)
VFR
Wind Visibility
180° at 9 knots 10 miles
Clouds
  • Clear skies
Temperature Dewpoint
45°C / 113°F -2°C / 28°F
Humidity Altimeter Pressure
5% 29.73" Hg 1007 hPa